sensor_id;sensor_type;location;lat;lon;timestamp;temperature;humidity
33673;DHT22;20011;51.510;9.942;2024-01-30T00:00:58;4.80;99.90
33673;DHT22;20011;51.510;9.942;2024-01-30T00:03:25;4.90;99.90
33673;DHT22;20011;51.510;9.942;2024-01-30T00:05:53;4.50;99.90
33673;DHT22;20011;51.510;9.942;2024-01-30T00:08:24;4.50;99.90
33673;DHT22;20011;51.510;9.942;2024-01-30T00:10:50;4.80;99.90
33673;DHT22;20011;51.510;9.942;2024-01-30T00:13:17;5.00;99.90
33673;DHT22;20011;51.510;9.942;2024-01-30T00:15:46;4.50;99.90
33673;DHT22;20011;51.510;9.942;2024-01-30T00:18:13;4.60;99.90
33673;DHT22;20011;51.510;9.942;2024-01-30T00:20:40;4.80;99.90
33673;DHT22;20011;51.510;9.942;2024-01-30T00:23:07;4.50;99.90
33673;DHT22;20011;51.510;9.942;2024-01-30T00:25:34;4.70;99.90
33673;DHT22;20011;51.510;9.942;2024-01-30T00:28:01;4.40;99.90
33673;DHT22;20011;51.510;9.942;2024-01-30T00:30:28;4.50;99.90
33673;DHT22;20011;51.510;9.942;2024-01-30T00:32:55;5.00;99.90
33673;DHT22;20011;51.510;9.942;2024-01-30T00:35:22;4.80;99.90
33673;DHT22;20011;51.510;9.942;2024-01-30T00:37:49;4.60;99.90
33673;DHT22;20011;51.510;9.942;2024-01-30T00:40:16;4.70;99.90
33673;DHT22;20011;51.510;9.942;2024-01-30T00:42:44;4.60;99.90
33673;DHT22;20011;51.510;9.942;2024-01-30T00:45:13;4.70;99.90
33673;DHT22;20011;51.510;9.942;2024-01-30T00:47:40;4.60;99.90
33673;DHT22;20011;51.510;9.942;2024-01-30T00:50:08;4.60;99.90
33673;DHT22;20011;51.510;9.942;2024-01-30T00:52:35;4.60;99.90
33673;DHT22;20011;51.510;9.942;2024-01-30T00:55:02;4.50;99.90
33673;DHT22;20011;51.510;9.942;2024-01-30T00:57:29;4.60;99.90
33673;DHT22;20011;51.510;9.942;2024-01-30T00:59:57;4.60;99.90
33673;DHT22;20011;51.510;9.942;2024-01-30T01:02:24;4.70;99.90
33673;DHT22;20011;51.510;9.942;2024-01-30T01:04:50;4.70;99.90
33673;DHT22;20011;51.510;9.942;2024-01-30T01:07:17;4.50;99.90
33673;DHT22;20011;51.510;9.942;2024-01-30T01:09:44;4.50;99.90
33673;DHT22;20011;51.510;9.942;2024-01-30T01:12:11;4.70;99.90
33673;DHT22;20011;51.510;9.942;2024-01-30T01:14:38;4.60;99.90
33673;DHT22;20011;51.510;9.942;2024-01-30T01:17:05;4.70;99.90
33673;DHT22;20011;51.510;9.942;2024-01-30T01:19:32;4.70;99.90
33673;DHT22;20011;51.510;9.942;2024-01-30T01:21:59;4.70;99.90
33673;DHT22;20011;51.510;9.942;2024-01-30T01:24:26;4.80;99.90
33673;DHT22;20011;51.510;9.942;2024-01-30T01:26:53;4.50;99.90
33673;DHT22;20011;51.510;9.942;2024-01-30T01:29:19;4.40;99.90
33673;DHT22;20011;51.510;9.942;2024-01-30T01:31:47;4.50;99.90
33673;DHT22;20011;51.510;9.942;2024-01-30T01:34:14;4.50;99.90
33673;DHT22;20011;51.510;9.942;2024-01-30T01:36:41;4.60;99.90
33673;DHT22;20011;51.510;9.942;2024-01-30T01:39:08;4.50;99.90
33673;DHT22;20011;51.510;9.942;2024-01-30T01:41:35;4.50;99.90
33673;DHT22;20011;51.510;9.942;2024-01-30T01:44:02;4.60;99.90
33673;DHT22;20011;51.510;9.942;2024-01-30T01:46:32;4.70;99.90
33673;DHT22;20011;51.510;9.942;2024-01-30T01:49:02;4.70;99.90
33673;DHT22;20011;51.510;9.942;2024-01-30T01:51:30;4.60;99.90
33673;DHT22;20011;51.510;9.942;2024-01-30T01:53:59;4.70;99.90
33673;DHT22;20011;51.510;9.942;2024-01-30T01:56:27;4.70;99.90
33673;DHT22;20011;51.510;9.942;2024-01-30T01:58:55;4.80;99.90
33673;DHT22;20011;51.510;9.942;2024-01-30T02:01:26;4.80;99.90
33673;DHT22;20011;51.510;9.942;2024-01-30T02:03:54;4.70;99.90
33673;DHT22;20011;51.510;9.942;2024-01-30T02:06:21;4.60;99.90
33673;DHT22;20011;51.510;9.942;2024-01-30T02:08:48;4.70;99.90
33673;DHT22;20011;51.510;9.942;2024-01-30T02:11:15;4.60;99.90
33673;DHT22;20011;51.510;9.942;2024-01-30T02:13:43;4.50;99.90
33673;DHT22;20011;51.510;9.942;2024-01-30T02:16:10;4.50;99.90
33673;DHT22;20011;51.510;9.942;2024-01-30T02:18:37;4.50;99.90
33673;DHT22;20011;51.510;9.942;2024-01-30T02:21:08;4.40;99.90
33673;DHT22;20011;51.510;9.942;2024-01-30T02:23:36;4.30;99.90
33673;DHT22;20011;51.510;9.942;2024-01-30T02:26:04;4.40;99.90
33673;DHT22;20011;51.510;9.942;2024-01-30T02:28:31;4.30;99.90
33673;DHT22;20011;51.510;9.942;2024-01-30T02:30:58;4.10;99.90
33673;DHT22;20011;51.510;9.942;2024-01-30T02:33:25;4.10;99.90
33673;DHT22;20011;51.510;9.942;2024-01-30T02:35:52;4.30;99.90
33673;DHT22;20011;51.510;9.942;2024-01-30T02:42:31;4.30;99.90
33673;DHT22;20011;51.510;9.942;2024-01-30T02:44:58;4.30;99.90
33673;DHT22;20011;51.510;9.942;2024-01-30T02:47:25;4.20;99.90
33673;DHT22;20011;51.510;9.942;2024-01-30T02:49:52;4.20;99.90
33673;DHT22;20011;51.510;9.942;2024-01-30T02:52:22;4.20;99.90
33673;DHT22;20011;51.510;9.942;2024-01-30T02:54:56;4.20;99.90
33673;DHT22;20011;51.510;9.942;2024-01-30T02:57:23;4.30;99.90
33673;DHT22;20011;51.510;9.942;2024-01-30T03:03:13;4.30;99.90
33673;DHT22;20011;51.510;9.942;2024-01-30T03:05:40;4.30;99.90
33673;DHT22;20011;51.510;9.942;2024-01-30T03:08:06;4.30;99.90
33673;DHT22;20011;51.510;9.942;2024-01-30T03:10:33;4.20;99.90
33673;DHT22;20011;51.510;9.942;2024-01-30T03:13:00;4.10;99.90
33673;DHT22;20011;51.510;9.942;2024-01-30T03:15:27;4.10;99.90
33673;DHT22;20011;51.510;9.942;2024-01-30T03:17:54;4.20;99.90
33673;DHT22;20011;51.510;9.942;2024-01-30T03:20:21;4.10;99.90
33673;DHT22;20011;51.510;9.942;2024-01-30T03:22:48;4.10;99.90
33673;DHT22;20011;51.510;9.942;2024-01-30T03:25:15;4.30;99.90
33673;DHT22;20011;51.510;9.942;2024-01-30T03:27:42;4.30;99.90
33673;DHT22;20011;51.510;9.942;2024-01-30T03:30:09;4.40;99.90
33673;DHT22;20011;51.510;9.942;2024-01-30T03:32:36;4.20;99.90
33673;DHT22;20011;51.510;9.942;2024-01-30T03:35:03;4.20;99.90
33673;DHT22;20011;51.510;9.942;2024-01-30T03:37:30;4.20;99.90
33673;DHT22;20011;51.510;9.942;2024-01-30T03:39:57;4.20;99.90
33673;DHT22;20011;51.510;9.942;2024-01-30T03:42:24;4.30;99.90
33673;DHT22;20011;51.510;9.942;2024-01-30T03:44:51;4.20;99.90
33673;DHT22;20011;51.510;9.942;2024-01-30T03:47:20;4.10;99.90
33673;DHT22;20011;51.510;9.942;2024-01-30T04:01:23;3.70;99.90
33673;DHT22;20011;51.510;9.942;2024-01-30T04:04:03;3.70;99.90
33673;DHT22;20011;51.510;9.942;2024-01-30T04:06:30;3.80;99.90
33673;DHT22;20011;51.510;9.942;2024-01-30T04:08:57;3.90;99.90
33673;DHT22;20011;51.510;9.942;2024-01-30T04:11:24;3.90;99.90
33673;DHT22;20011;51.510;9.942;2024-01-30T04:13:51;4.00;99.90
33673;DHT22;20011;51.510;9.942;2024-01-30T04:16:21;4.00;99.90
33673;DHT22;20011;51.510;9.942;2024-01-30T04:18:50;4.00;99.90
33673;DHT22;20011;51.510;9.942;2024-01-30T04:21:17;3.90;99.90
33673;DHT22;20011;51.510;9.942;2024-01-30T04:23:44;3.90;99.90
33673;DHT22;20011;51.510;9.942;2024-01-30T04:26:11;3.90;99.90
33673;DHT22;20011;51.510;9.942;2024-01-30T04:28:38;4.10;99.90
33673;DHT22;20011;51.510;9.942;2024-01-30T04:31:05;4.00;99.90
33673;DHT22;20011;51.510;9.942;2024-01-30T04:34:09;4.00;99.90
33673;DHT22;20011;51.510;9.942;2024-01-30T04:40:49;4.10;99.90
33673;DHT22;20011;51.510;9.942;2024-01-30T04:43:58;4.10;99.90
33673;DHT22;20011;51.510;9.942;2024-01-30T04:46:25;4.10;99.90
33673;DHT22;20011;51.510;9.942;2024-01-30T04:48:52;4.00;99.90
33673;DHT22;20011;51.510;9.942;2024-01-30T04:51:18;4.00;99.90
33673;DHT22;20011;51.510;9.942;2024-01-30T04:53:45;4.00;99.90
33673;DHT22;20011;51.510;9.942;2024-01-30T04:56:12;4.10;99.90
33673;DHT22;20011;51.510;9.942;2024-01-30T04:58:39;4.10;99.90
33673;DHT22;20011;51.510;9.942;2024-01-30T05:01:06;4.00;99.90
33673;DHT22;20011;51.510;9.942;2024-01-30T05:03:34;4.00;99.90
33673;DHT22;20011;51.510;9.942;2024-01-30T05:06:01;3.90;99.90
33673;DHT22;20011;51.510;9.942;2024-01-30T05:08:29;4.00;99.90
33673;DHT22;20011;51.510;9.942;2024-01-30T05:10:55;4.10;99.90
33673;DHT22;20011;51.510;9.942;2024-01-30T05:13:22;4.20;99.90
33673;DHT22;20011;51.510;9.942;2024-01-30T05:15:49;4.20;99.90
33673;DHT22;20011;51.510;9.942;2024-01-30T05:18:16;4.20;99.90
33673;DHT22;20011;51.510;9.942;2024-01-30T05:20:43;4.10;99.90
33673;DHT22;20011;51.510;9.942;2024-01-30T05:23:10;4.10;99.90
33673;DHT22;20011;51.510;9.942;2024-01-30T05:25:37;4.20;99.90
33673;DHT22;20011;51.510;9.942;2024-01-30T05:28:04;4.20;99.90
33673;DHT22;20011;51.510;9.942;2024-01-30T05:30:31;4.30;99.90
33673;DHT22;20011;51.510;9.942;2024-01-30T05:32:58;4.20;99.90
33673;DHT22;20011;51.510;9.942;2024-01-30T05:39:38;4.30;99.90
33673;DHT22;20011;51.510;9.942;2024-01-30T05:42:05;4.20;99.90
33673;DHT22;20011;51.510;9.942;2024-01-30T05:44:32;4.30;99.90
33673;DHT22;20011;51.510;9.942;2024-01-30T05:47:00;4.30;99.90
33673;DHT22;20011;51.510;9.942;2024-01-30T05:49:26;4.20;99.90
33673;DHT22;20011;51.510;9.942;2024-01-30T05:51:53;4.30;99.90
33673;DHT22;20011;51.510;9.942;2024-01-30T05:54:21;4.30;99.90
33673;DHT22;20011;51.510;9.942;2024-01-30T05:56:48;4.30;99.90
33673;DHT22;20011;51.510;9.942;2024-01-30T05:59:15;4.40;99.90
33673;DHT22;20011;51.510;9.942;2024-01-30T06:01:47;4.20;99.90
33673;DHT22;20011;51.510;9.942;2024-01-30T06:04:14;4.20;99.90
33673;DHT22;20011;51.510;9.942;2024-01-30T06:06:42;4.30;99.90
33673;DHT22;20011;51.510;9.942;2024-01-30T06:09:10;4.30;99.90
33673;DHT22;20011;51.510;9.942;2024-01-30T06:11:37;4.40;99.90
33673;DHT22;20011;51.510;9.942;2024-01-30T06:14:04;4.50;99.90
33673;DHT22;20011;51.510;9.942;2024-01-30T06:20:38;4.40;99.90
33673;DHT22;20011;51.510;9.942;2024-01-30T06:23:05;4.50;99.90
33673;DHT22;20011;51.510;9.942;2024-01-30T06:25:32;4.40;99.90
33673;DHT22;20011;51.510;9.942;2024-01-30T06:27:59;4.40;99.90
33673;DHT22;20011;51.510;9.942;2024-01-30T06:30:26;4.40;99.90
33673;DHT22;20011;51.510;9.942;2024-01-30T06:32:53;4.50;99.90
33673;DHT22;20011;51.510;9.942;2024-01-30T06:35:20;4.40;99.90
33673;DHT22;20011;51.510;9.942;2024-01-30T06:37:48;4.50;99.90
33673;DHT22;20011;51.510;9.942;2024-01-30T06:40:15;4.50;99.90
33673;DHT22;20011;51.510;9.942;2024-01-30T06:42:42;4.40;99.90
33673;DHT22;20011;51.510;9.942;2024-01-30T06:45:09;4.50;99.90
33673;DHT22;20011;51.510;9.942;2024-01-30T06:47:36;4.50;99.90
33673;DHT22;20011;51.510;9.942;2024-01-30T06:50:03;4.40;99.90
33673;DHT22;20011;51.510;9.942;2024-01-30T06:52:30;4.40;99.90
33673;DHT22;20011;51.510;9.942;2024-01-30T06:54:57;4.30;99.90
33673;DHT22;20011;51.510;9.942;2024-01-30T06:57:24;4.40;99.90
33673;DHT22;20011;51.510;9.942;2024-01-30T06:59:52;4.30;99.90
33673;DHT22;20011;51.510;9.942;2024-01-30T07:02:22;4.30;99.90
33673;DHT22;20011;51.510;9.942;2024-01-30T07:04:49;4.30;99.90
33673;DHT22;20011;51.510;9.942;2024-01-30T07:07:16;4.30;99.90
33673;DHT22;20011;51.510;9.942;2024-01-30T07:09:43;4.30;99.90
33673;DHT22;20011;51.510;9.942;2024-01-30T07:12:10;4.10;99.90
33673;DHT22;20011;51.510;9.942;2024-01-30T07:14:37;4.10;99.90
33673;DHT22;20011;51.510;9.942;2024-01-30T07:17:04;4.20;99.90
33673;DHT22;20011;51.510;9.942;2024-01-30T07:19:32;4.30;99.90
33673;DHT22;20011;51.510;9.942;2024-01-30T07:22:00;4.30;99.90
33673;DHT22;20011;51.510;9.942;2024-01-30T07:24:27;4.30;99.90
33673;DHT22;20011;51.510;9.942;2024-01-30T07:26:54;4.30;99.90
33673;DHT22;20011;51.510;9.942;2024-01-30T07:29:21;4.30;99.90
33673;DHT22;20011;51.510;9.942;2024-01-30T07:31:49;4.30;99.90
33673;DHT22;20011;51.510;9.942;2024-01-30T07:34:16;4.20;99.90
33673;DHT22;20011;51.510;9.942;2024-01-30T07:36:43;4.30;99.90
33673;DHT22;20011;51.510;9.942;2024-01-30T07:39:10;4.40;99.90
33673;DHT22;20011;51.510;9.942;2024-01-30T07:41:37;4.30;99.90
33673;DHT22;20011;51.510;9.942;2024-01-30T07:44:04;4.50;99.90
33673;DHT22;20011;51.510;9.942;2024-01-30T07:46:31;4.40;99.90
33673;DHT22;20011;51.510;9.942;2024-01-30T07:48:58;4.50;99.90
33673;DHT22;20011;51.510;9.942;2024-01-30T07:51:26;4.50;99.90
33673;DHT22;20011;51.510;9.942;2024-01-30T07:53:55;4.50;99.90
33673;DHT22;20011;51.510;9.942;2024-01-30T08:03:48;4.50;99.90
33673;DHT22;20011;51.510;9.942;2024-01-30T08:06:15;4.40;99.90
33673;DHT22;20011;51.510;9.942;2024-01-30T08:08:42;4.40;99.90
33673;DHT22;20011;51.510;9.942;2024-01-30T08:11:09;4.30;99.90
33673;DHT22;20011;51.510;9.942;2024-01-30T08:13:36;4.40;99.90
33673;DHT22;20011;51.510;9.942;2024-01-30T08:16:04;4.50;99.90
33673;DHT22;20011;51.510;9.942;2024-01-30T08:18:31;4.60;99.90
33673;DHT22;20011;51.510;9.942;2024-01-30T08:20:58;4.70;99.90
33673;DHT22;20011;51.510;9.942;2024-01-30T08:23:25;4.70;99.90
33673;DHT22;20011;51.510;9.942;2024-01-30T08:25:52;4.70;99.90
33673;DHT22;20011;51.510;9.942;2024-01-30T08:28:19;5.00;99.90
33673;DHT22;20011;51.510;9.942;2024-01-30T08:30:47;5.00;99.90
33673;DHT22;20011;51.510;9.942;2024-01-30T08:33:14;5.00;99.90
33673;DHT22;20011;51.510;9.942;2024-01-30T08:35:41;5.20;99.90
33673;DHT22;20011;51.510;9.942;2024-01-30T08:38:08;5.00;99.90
33673;DHT22;20011;51.510;9.942;2024-01-30T08:40:35;5.10;99.90
33673;DHT22;20011;51.510;9.942;2024-01-30T08:43:02;5.10;99.90
33673;DHT22;20011;51.510;9.942;2024-01-30T08:45:30;5.10;99.90
33673;DHT22;20011;51.510;9.942;2024-01-30T08:47:57;5.30;99.90
33673;DHT22;20011;51.510;9.942;2024-01-30T08:50:24;5.30;99.90
33673;DHT22;20011;51.510;9.942;2024-01-30T08:52:51;5.40;99.90
33673;DHT22;20011;51.510;9.942;2024-01-30T08:55:18;5.30;99.90
33673;DHT22;20011;51.510;9.942;2024-01-30T08:57:45;5.40;99.90
33673;DHT22;20011;51.510;9.942;2024-01-30T09:00:13;5.50;99.90
33673;DHT22;20011;51.510;9.942;2024-01-30T09:02:40;5.50;99.90
33673;DHT22;20011;51.510;9.942;2024-01-30T09:05:07;5.50;99.90
33673;DHT22;20011;51.510;9.942;2024-01-30T09:07:34;5.60;99.90
33673;DHT22;20011;51.510;9.942;2024-01-30T09:10:01;5.60;99.90
33673;DHT22;20011;51.510;9.942;2024-01-30T09:12:29;5.70;99.90
33673;DHT22;20011;51.510;9.942;2024-01-30T09:14:56;5.80;99.90
33673;DHT22;20011;51.510;9.942;2024-01-30T09:17:22;5.80;99.90
33673;DHT22;20011;51.510;9.942;2024-01-30T09:19:49;5.90;99.90
33673;DHT22;20011;51.510;9.942;2024-01-30T09:22:16;5.90;99.90
33673;DHT22;20011;51.510;9.942;2024-01-30T09:24:43;6.00;99.90
33673;DHT22;20011;51.510;9.942;2024-01-30T09:27:10;6.20;99.90
33673;DHT22;20011;51.510;9.942;2024-01-30T09:29:37;6.20;99.90
33673;DHT22;20011;51.510;9.942;2024-01-30T09:32:05;6.30;99.90
33673;DHT22;20011;51.510;9.942;2024-01-30T09:34:33;6.30;99.90
33673;DHT22;20011;51.510;9.942;2024-01-30T09:37:00;6.50;99.90
33673;DHT22;20011;51.510;9.942;2024-01-30T09:39:27;6.50;99.90
33673;DHT22;20011;51.510;9.942;2024-01-30T09:44:25;6.60;99.90
33673;DHT22;20011;51.510;9.942;2024-01-30T09:46:52;6.70;99.90
33673;DHT22;20011;51.510;9.942;2024-01-30T09:49:20;6.70;99.90
33673;DHT22;20011;51.510;9.942;2024-01-30T09:51:48;6.70;99.90
33673;DHT22;20011;51.510;9.942;2024-01-30T09:54:17;6.80;99.90
33673;DHT22;20011;51.510;9.942;2024-01-30T09:56:44;6.70;99.90
33673;DHT22;20011;51.510;9.942;2024-01-30T09:59:11;6.70;99.90
33673;DHT22;20011;51.510;9.942;2024-01-30T10:01:38;6.80;99.90
33673;DHT22;20011;51.510;9.942;2024-01-30T10:04:07;6.90;99.90
33673;DHT22;20011;51.510;9.942;2024-01-30T10:06:34;6.90;99.90
33673;DHT22;20011;51.510;9.942;2024-01-30T10:09:01;7.00;99.90
33673;DHT22;20011;51.510;9.942;2024-01-30T10:11:28;7.00;99.90
33673;DHT22;20011;51.510;9.942;2024-01-30T10:13:56;7.00;99.90
33673;DHT22;20011;51.510;9.942;2024-01-30T10:16:22;7.10;99.90
33673;DHT22;20011;51.510;9.942;2024-01-30T10:18:50;7.10;99.90
33673;DHT22;20011;51.510;9.942;2024-01-30T10:21:18;7.20;99.90
33673;DHT22;20011;51.510;9.942;2024-01-30T10:23:45;7.20;99.90
33673;DHT22;20011;51.510;9.942;2024-01-30T10:26:12;7.30;99.90
33673;DHT22;20011;51.510;9.942;2024-01-30T10:28:39;7.40;99.90
33673;DHT22;20011;51.510;9.942;2024-01-30T10:31:06;7.40;99.90
33673;DHT22;20011;51.510;9.942;2024-01-30T10:33:33;7.40;99.90
33673;DHT22;20011;51.510;9.942;2024-01-30T10:36:02;7.40;99.90
33673;DHT22;20011;51.510;9.942;2024-01-30T10:38:30;7.50;99.90
33673;DHT22;20011;51.510;9.942;2024-01-30T10:40:59;7.50;99.90
33673;DHT22;20011;51.510;9.942;2024-01-30T10:43:36;7.60;99.90
33673;DHT22;20011;51.510;9.942;2024-01-30T10:46:11;7.60;99.90
33673;DHT22;20011;51.510;9.942;2024-01-30T10:48:42;7.60;99.90
33673;DHT22;20011;51.510;9.942;2024-01-30T10:51:12;7.70;99.90
33673;DHT22;20011;51.510;9.942;2024-01-30T10:53:41;7.70;99.90
33673;DHT22;20011;51.510;9.942;2024-01-30T10:56:11;7.70;99.90
33673;DHT22;20011;51.510;9.942;2024-01-30T10:58:38;7.70;99.90
33673;DHT22;20011;51.510;9.942;2024-01-30T11:01:06;7.80;99.90
33673;DHT22;20011;51.510;9.942;2024-01-30T11:03:34;7.90;99.90
33673;DHT22;20011;51.510;9.942;2024-01-30T11:06:03;7.90;99.90
33673;DHT22;20011;51.510;9.942;2024-01-30T11:08:32;8.00;99.90
33673;DHT22;20011;51.510;9.942;2024-01-30T11:10:59;8.00;99.90
33673;DHT22;20011;51.510;9.942;2024-01-30T11:13:30;8.00;99.90
33673;DHT22;20011;51.510;9.942;2024-01-30T11:16:04;8.00;99.90
33673;DHT22;20011;51.510;9.942;2024-01-30T11:18:33;8.00;99.90
33673;DHT22;20011;51.510;9.942;2024-01-30T11:21:04;8.00;99.90
33673;DHT22;20011;51.510;9.942;2024-01-30T11:23:33;8.00;99.90
33673;DHT22;20011;51.510;9.942;2024-01-30T11:26:01;8.10;99.90
33673;DHT22;20011;51.510;9.942;2024-01-30T11:28:33;8.10;99.90
33673;DHT22;20011;51.510;9.942;2024-01-30T11:31:05;8.10;99.90
33673;DHT22;20011;51.510;9.942;2024-01-30T11:33:34;8.10;99.90
33673;DHT22;20011;51.510;9.942;2024-01-30T11:36:02;8.20;99.90
33673;DHT22;20011;51.510;9.942;2024-01-30T11:38:29;8.20;99.90
33673;DHT22;20011;51.510;9.942;2024-01-30T11:40:56;8.20;99.90
33673;DHT22;20011;51.510;9.942;2024-01-30T11:43:24;8.20;99.90
33673;DHT22;20011;51.510;9.942;2024-01-30T11:45:53;8.30;99.90
33673;DHT22;20011;51.510;9.942;2024-01-30T11:48:20;8.20;99.90
33673;DHT22;20011;51.510;9.942;2024-01-30T11:50:48;8.30;99.90
33673;DHT22;20011;51.510;9.942;2024-01-30T11:53:15;8.40;99.90
33673;DHT22;20011;51.510;9.942;2024-01-30T11:55:49;8.40;99.90
33673;DHT22;20011;51.510;9.942;2024-01-30T11:58:16;8.40;99.90
33673;DHT22;20011;51.510;9.942;2024-01-30T12:00:53;8.50;99.90
33673;DHT22;20011;51.510;9.942;2024-01-30T12:03:20;8.50;99.90
33673;DHT22;20011;51.510;9.942;2024-01-30T12:05:55;8.50;99.90
33673;DHT22;20011;51.510;9.942;2024-01-30T12:08:22;8.50;99.90
33673;DHT22;20011;51.510;9.942;2024-01-30T12:10:56;8.50;99.90
33673;DHT22;20011;51.510;9.942;2024-01-30T12:13:25;8.50;99.90
33673;DHT22;20011;51.510;9.942;2024-01-30T12:15:58;8.50;99.90
33673;DHT22;20011;51.510;9.942;2024-01-30T12:18:25;8.60;99.90
33673;DHT22;20011;51.510;9.942;2024-01-30T12:21:01;8.60;99.90
33673;DHT22;20011;51.510;9.942;2024-01-30T12:23:29;8.60;99.90
33673;DHT22;20011;51.510;9.942;2024-01-30T12:25:57;8.60;99.90
33673;DHT22;20011;51.510;9.942;2024-01-30T12:28:23;8.60;99.90
33673;DHT22;20011;51.510;9.942;2024-01-30T12:31:00;8.60;99.90
33673;DHT22;20011;51.510;9.942;2024-01-30T12:33:29;8.60;99.90
33673;DHT22;20011;51.510;9.942;2024-01-30T12:35:57;8.70;99.90
33673;DHT22;20011;51.510;9.942;2024-01-30T12:38:30;8.70;99.90
33673;DHT22;20011;51.510;9.942;2024-01-30T12:40:57;8.80;99.90
33673;DHT22;20011;51.510;9.942;2024-01-30T12:43:25;8.80;99.90
33673;DHT22;20011;51.510;9.942;2024-01-30T12:46:04;8.80;99.90
33673;DHT22;20011;51.510;9.942;2024-01-30T12:48:31;8.80;99.90
33673;DHT22;20011;51.510;9.942;2024-01-30T12:50:58;8.80;99.90
33673;DHT22;20011;51.510;9.942;2024-01-30T12:53:26;8.80;99.90
33673;DHT22;20011;51.510;9.942;2024-01-30T12:55:53;8.90;99.90
33673;DHT22;20011;51.510;9.942;2024-01-30T12:58:21;8.90;99.90
33673;DHT22;20011;51.510;9.942;2024-01-30T13:00:48;8.80;99.90
33673;DHT22;20011;51.510;9.942;2024-01-30T13:03:15;8.90;99.90
33673;DHT22;20011;51.510;9.942;2024-01-30T13:05:43;8.80;99.90
33673;DHT22;20011;51.510;9.942;2024-01-30T13:08:10;8.90;99.90
33673;DHT22;20011;51.510;9.942;2024-01-30T13:10:36;8.90;99.90
33673;DHT22;20011;51.510;9.942;2024-01-30T13:13:04;8.90;99.90
33673;DHT22;20011;51.510;9.942;2024-01-30T13:15:35;8.90;99.90
33673;DHT22;20011;51.510;9.942;2024-01-30T13:18:02;9.00;99.90
33673;DHT22;20011;51.510;9.942;2024-01-30T13:20:29;9.00;99.90
33673;DHT22;20011;51.510;9.942;2024-01-30T13:22:57;9.00;99.90
33673;DHT22;20011;51.510;9.942;2024-01-30T13:25:25;9.00;99.90
33673;DHT22;20011;51.510;9.942;2024-01-30T13:27:53;9.00;99.90
33673;DHT22;20011;51.510;9.942;2024-01-30T13:30:20;9.10;99.90
33673;DHT22;20011;51.510;9.942;2024-01-30T13:32:47;9.10;99.90
33673;DHT22;20011;51.510;9.942;2024-01-30T13:35:14;9.20;99.90
33673;DHT22;20011;51.510;9.942;2024-01-30T13:37:41;9.10;99.90
33673;DHT22;20011;51.510;9.942;2024-01-30T13:40:09;9.10;99.90
33673;DHT22;20011;51.510;9.942;2024-01-30T13:42:40;9.20;99.90
33673;DHT22;20011;51.510;9.942;2024-01-30T13:45:07;9.20;99.90
33673;DHT22;20011;51.510;9.942;2024-01-30T13:47:37;9.10;99.90
33673;DHT22;20011;51.510;9.942;2024-01-30T13:50:05;9.20;99.90
33673;DHT22;20011;51.510;9.942;2024-01-30T13:52:33;9.10;99.90
33673;DHT22;20011;51.510;9.942;2024-01-30T13:55:10;9.10;99.90
33673;DHT22;20011;51.510;9.942;2024-01-30T13:57:37;9.10;99.90
33673;DHT22;20011;51.510;9.942;2024-01-30T14:00:05;9.10;99.90
33673;DHT22;20011;51.510;9.942;2024-01-30T14:02:38;9.20;99.90
33673;DHT22;20011;51.510;9.942;2024-01-30T14:05:06;9.20;99.90
33673;DHT22;20011;51.510;9.942;2024-01-30T14:07:33;9.10;99.90
33673;DHT22;20011;51.510;9.942;2024-01-30T14:10:01;9.00;99.90
33673;DHT22;20011;51.510;9.942;2024-01-30T14:12:30;9.20;99.90
33673;DHT22;20011;51.510;9.942;2024-01-30T14:14:57;9.10;99.90
33673;DHT22;20011;51.510;9.942;2024-01-30T14:17:24;9.10;99.90
33673;DHT22;20011;51.510;9.942;2024-01-30T14:19:51;9.10;99.90
33673;DHT22;20011;51.510;9.942;2024-01-30T14:22:18;9.10;99.90
33673;DHT22;20011;51.510;9.942;2024-01-30T14:24:44;9.00;99.90
33673;DHT22;20011;51.510;9.942;2024-01-30T14:27:12;9.00;99.90
33673;DHT22;20011;51.510;9.942;2024-01-30T14:29:39;9.00;99.90
33673;DHT22;20011;51.510;9.942;2024-01-30T14:32:08;9.00;99.90
33673;DHT22;20011;51.510;9.942;2024-01-30T14:34:35;9.00;99.90
33673;DHT22;20011;51.510;9.942;2024-01-30T14:37:02;9.00;99.90
33673;DHT22;20011;51.510;9.942;2024-01-30T14:39:29;9.00;99.90
33673;DHT22;20011;51.510;9.942;2024-01-30T14:41:56;9.00;99.90
33673;DHT22;20011;51.510;9.942;2024-01-30T14:44:23;8.90;99.90
33673;DHT22;20011;51.510;9.942;2024-01-30T14:46:50;9.00;99.90
33673;DHT22;20011;51.510;9.942;2024-01-30T14:49:18;9.00;99.90
33673;DHT22;20011;51.510;9.942;2024-01-30T14:51:45;9.00;99.90
33673;DHT22;20011;51.510;9.942;2024-01-30T14:54:12;8.90;99.90
33673;DHT22;20011;51.510;9.942;2024-01-30T14:56:39;9.00;99.90
33673;DHT22;20011;51.510;9.942;2024-01-30T14:59:07;9.00;99.90
33673;DHT22;20011;51.510;9.942;2024-01-30T15:01:34;9.00;99.90
33673;DHT22;20011;51.510;9.942;2024-01-30T15:04:01;9.00;99.90
33673;DHT22;20011;51.510;9.942;2024-01-30T15:06:28;9.00;99.90
33673;DHT22;20011;51.510;9.942;2024-01-30T15:08:55;9.00;99.90
33673;DHT22;20011;51.510;9.942;2024-01-30T15:11:22;9.00;99.90
33673;DHT22;20011;51.510;9.942;2024-01-30T15:13:49;8.90;99.90
33673;DHT22;20011;51.510;9.942;2024-01-30T15:16:16;8.90;99.90
33673;DHT22;20011;51.510;9.942;2024-01-30T15:18:43;8.90;99.90
33673;DHT22;20011;51.510;9.942;2024-01-30T15:21:10;9.00;99.90
33673;DHT22;20011;51.510;9.942;2024-01-30T15:23:37;9.00;99.90
33673;DHT22;20011;51.510;9.942;2024-01-30T15:26:04;9.00;99.90
33673;DHT22;20011;51.510;9.942;2024-01-30T15:28:36;9.00;99.90
33673;DHT22;20011;51.510;9.942;2024-01-30T15:31:05;9.00;99.90
33673;DHT22;20011;51.510;9.942;2024-01-30T15:33:33;9.10;99.90
33673;DHT22;20011;51.510;9.942;2024-01-30T15:36:01;9.10;99.90
33673;DHT22;20011;51.510;9.942;2024-01-30T15:38:35;9.10;99.90
33673;DHT22;20011;51.510;9.942;2024-01-30T15:41:02;9.10;99.90
33673;DHT22;20011;51.510;9.942;2024-01-30T15:43:29;9.10;99.90
33673;DHT22;20011;51.510;9.942;2024-01-30T15:45:56;9.00;99.90
33673;DHT22;20011;51.510;9.942;2024-01-30T15:48:23;9.00;99.90
33673;DHT22;20011;51.510;9.942;2024-01-30T15:50:50;9.00;99.90
33673;DHT22;20011;51.510;9.942;2024-01-30T15:53:20;9.00;99.90
33673;DHT22;20011;51.510;9.942;2024-01-30T15:55:47;8.90;99.90
33673;DHT22;20011;51.510;9.942;2024-01-30T15:58:14;8.90;99.90
33673;DHT22;20011;51.510;9.942;2024-01-30T16:00:41;8.90;99.90
33673;DHT22;20011;51.510;9.942;2024-01-30T16:03:09;9.00;99.90
33673;DHT22;20011;51.510;9.942;2024-01-30T16:05:36;9.00;99.90
33673;DHT22;20011;51.510;9.942;2024-01-30T16:08:03;8.90;99.90
33673;DHT22;20011;51.510;9.942;2024-01-30T16:10:30;8.90;99.90
33673;DHT22;20011;51.510;9.942;2024-01-30T16:12:57;8.90;99.90
33673;DHT22;20011;51.510;9.942;2024-01-30T16:15:24;8.90;99.90
33673;DHT22;20011;51.510;9.942;2024-01-30T16:17:52;8.90;99.90
33673;DHT22;20011;51.510;9.942;2024-01-30T16:20:19;8.90;99.90
33673;DHT22;20011;51.510;9.942;2024-01-30T16:22:47;8.90;99.90
33673;DHT22;20011;51.510;9.942;2024-01-30T16:25:19;8.90;99.90
33673;DHT22;20011;51.510;9.942;2024-01-30T16:27:46;8.80;99.90
33673;DHT22;20011;51.510;9.942;2024-01-30T16:30:13;8.80;99.90